Time;durP1;ratioP1;P1;durP2;ratioP2;P2;SDS_P1;SDS_P2;PMS_P1;PMS_P2;Temp;Humidity;BMP_temperature;BMP_pressure;BME280_temperature;BME280_humidity;BME280_pressure;Samples;Min_cycle;Max_cycle;Signal;HPM_P1;HPM_P2
2021/09/06 00:04:08;;;;;;;5.50;3.60;;;;;;;8.42;71.39;99595.17;232555;1205;25193;-74
2021/09/06 00:09:12;;;;;;;7.70;3.40;;;;;;;8.39;71.49;99593.55;232994;1204;22603;-75
2021/09/06 00:14:16;;;;;;;3.90;2.80;;;;;;;8.32;71.47;99599.20;232949;1204;24158;-73
2021/09/06 00:19:26;;;;;;;3.50;2.70;;;;;;;8.29;71.53;99598.09;232798;1210;25203;-75
2021/09/06 00:24:35;;;;;;;5.60;3.00;;;;;;;8.29;71.73;99597.94;232687;1205;22456;-75
2021/09/06 00:29:37;;;;;;;4.60;2.70;;;;;;;8.28;71.88;99600.71;232748;1205;24071;-74
2021/09/06 00:34:43;;;;;;;5.30;3.00;;;;;;;8.23;71.80;99601.78;232737;1205;24077;-75
2021/09/06 00:39:46;;;;;;;5.60;2.60;;;;;;;8.22;71.94;99609.66;232559;1207;22925;-74
2021/09/06 00:44:49;;;;;;;5.10;2.90;;;;;;;8.23;72.01;99602.73;232619;1204;22464;-75
2021/09/06 00:49:51;;;;;;;4.20;3.40;;;;;;;8.24;72.19;99608.09;232767;1204;24194;-75
2021/09/06 00:54:54;;;;;;;3.90;2.90;;;;;;;8.20;72.20;99604.92;232802;1205;24081;-75
2021/09/06 00:59:59;;;;;;;5.80;3.30;;;;;;;8.18;72.35;99606.22;232746;1205;25216;-77
2021/09/06 01:05:12;;;;;;;4.90;3.30;;;;;;;8.18;72.47;99604.08;232821;1208;22836;-75
2021/09/06 01:10:34;;;;;;;6.10;3.90;;;;;;;8.19;72.61;99606.48;232664;1201;24148;-75
2021/09/06 01:15:53;;;;;;;6.50;4.10;;;;;;;8.16;72.77;99603.84;232785;1208;25299;-73
2021/09/06 01:20:59;;;;;;;5.90;4.10;;;;;;;8.15;72.75;99594.70;232802;1209;24471;-75
2021/09/06 01:26:15;;;;;;;8.10;5.30;;;;;;;8.17;72.84;99600.66;232998;1204;22827;-73
2021/09/06 01:31:19;;;;;;;8.20;5.30;;;;;;;8.17;72.97;99599.75;232912;1205;22453;-75
2021/09/06 01:36:23;;;;;;;7.10;5.00;;;;;;;8.14;73.12;99590.95;232757;1205;24083;-75
2021/09/06 01:41:28;;;;;;;10.90;5.50;;;;;;;8.10;73.08;99589.91;232524;1207;22935;-75
2021/09/06 01:46:32;;;;;;;9.00;4.70;;;;;;;8.07;73.15;99591.48;232938;1208;22578;-76
2021/09/06 01:51:36;;;;;;;8.50;5.10;;;;;;;8.02;73.23;99584.98;232998;1206;22448;-74
2021/09/06 01:56:40;;;;;;;7.40;4.40;;;;;;;7.94;73.14;99590.55;232987;1203;24155;-76
2021/09/06 02:01:44;;;;;;;6.90;4.10;;;;;;;7.88;73.65;99589.31;232975;1205;22470;-75
2021/09/06 02:06:53;;;;;;;6.90;4.40;;;;;;;7.85;73.58;99590.23;233410;1205;22500;-75
2021/09/06 02:11:56;;;;;;;7.00;3.80;;;;;;;7.83;73.77;99598.95;232949;1205;24195;-75
2021/09/06 02:17:01;;;;;;;8.20;3.90;;;;;;;7.79;73.77;99596.47;232752;1209;22567;-73
2021/09/06 02:22:20;;;;;;;6.90;4.10;;;;;;;7.77;73.93;99596.61;232690;1208;24071;-74
2021/09/06 02:27:43;;;;;;;5.70;3.50;;;;;;;7.72;73.90;99594.52;232610;1206;24249;-73
2021/09/06 02:33:03;;;;;;;8.00;4.40;;;;;;;7.60;74.01;99600.95;232823;1200;25360;-74
2021/09/06 02:38:36;;;;;;;7.20;4.10;;;;;;;7.49;74.15;99598.23;232532;1209;22536;-75
2021/09/06 02:43:55;;;;;;;8.10;4.10;;;;;;;7.40;74.21;99601.21;232991;1203;23053;-75
2021/09/06 02:48:58;;;;;;;7.10;3.90;;;;;;;7.33;74.44;99602.69;232795;1208;24072;-75
2021/09/06 02:54:00;;;;;;;6.00;3.90;;;;;;;7.26;74.36;99604.88;232597;1208;24138;-76
2021/09/06 02:59:03;;;;;;;8.70;4.30;;;;;;;7.17;74.84;99610.39;233040;1205;25287;-75
2021/09/06 03:04:08;;;;;;;6.20;3.50;;;;;;;7.07;74.52;99604.50;233282;1205;24253;-75
2021/09/06 03:09:11;;;;;;;6.40;4.30;;;;;;;7.02;74.89;99604.17;232875;1205;22455;-76
2021/09/06 03:14:14;;;;;;;6.40;4.00;;;;;;;6.98;75.08;99603.70;232634;1203;22472;-75
2021/09/06 03:19:20;;;;;;;5.30;3.80;;;;;;;6.90;75.36;99597.44;232613;1205;22564;-75
2021/09/06 03:24:37;;;;;;;8.10;4.30;;;;;;;6.76;75.14;99592.11;233088;1204;22471;-72
2021/09/06 03:29:40;;;;;;;6.00;3.60;;;;;;;6.67;75.45;99593.41;232765;1205;24112;-76
2021/09/06 03:34:43;;;;;;;5.50;4.10;;;;;;;6.62;75.82;99589.87;233102;1200;22468;-74
2021/09/06 03:39:47;;;;;;;6.70;4.10;;;;;;;6.57;75.87;99586.38;233057;1205;24163;-75
2021/09/06 03:44:50;;;;;;;8.90;4.10;;;;;;;6.47;76.00;99585.58;233418;1203;25218;-75
2021/09/06 03:49:53;;;;;;;5.50;3.90;;;;;;;6.35;75.87;99586.02;232587;1205;24074;-75
2021/09/06 03:54:56;;;;;;;6.30;4.30;;;;;;;6.27;76.10;99589.09;232608;1205;24131;-75
2021/09/06 04:00:01;;;;;;;6.90;5.20;;;;;;;6.28;76.72;99594.05;232892;1209;22511;-74
2021/09/06 04:05:11;;;;;;;7.30;4.80;;;;;;;6.31;76.90;99591.71;232928;1205;22441;-75
2021/09/06 04:10:14;;;;;;;9.80;6.30;;;;;;;6.31;77.03;99590.33;232924;1209;24096;-75
2021/09/06 04:15:19;;;;;;;9.90;5.90;;;;;;;6.26;76.76;99586.73;233065;1209;26182;-76
2021/09/06 04:20:22;;;;;;;8.70;5.10;;;;;;;6.18;77.03;99588.60;233147;1200;24056;-75
2021/09/06 04:25:25;;;;;;;10.30;5.20;;;;;;;6.13;76.98;99592.09;232817;1205;26291;-77
2021/09/06 04:30:41;;;;;;;7.40;4.90;;;;;;;6.14;77.01;99597.78;233252;1205;24125;-73
2021/09/06 04:36:02;;;;;;;7.20;4.60;;;;;;;6.16;77.32;99601.67;232634;1209;24630;-77
2021/09/06 04:41:10;;;;;;;6.40;4.10;;;;;;;6.25;77.61;99604.05;232839;1205;22435;-74
2021/09/06 04:46:15;;;;;;;7.80;3.90;;;;;;;6.36;77.48;99611.05;233263;1204;25324;-73
2021/09/06 04:51:31;;;;;;;6.90;3.90;;;;;;;6.48;77.88;99612.69;232573;1198;24107;-75
2021/09/06 04:56:35;;;;;;;8.20;4.00;;;;;;;6.64;77.68;99613.27;232999;1212;22967;-75
2021/09/06 05:01:41;;;;;;;8.20;4.20;;;;;;;6.82;77.89;99616.44;232859;1206;24072;-75
2021/09/06 05:06:44;;;;;;;6.80;3.80;;;;;;;7.01;77.91;99628.98;232800;1203;22441;-75
2021/09/06 05:11:47;;;;;;;6.90;4.10;;;;;;;7.25;77.82;99629.55;233271;1205;22513;-76
2021/09/06 05:16:52;;;;;;;7.80;3.80;;;;;;;7.45;77.84;99631.41;232686;1205;24762;-75
2021/09/06 05:21:55;;;;;;;11.20;5.10;;;;;;;7.63;77.83;99630.25;232515;1205;24090;-74
2021/09/06 05:27:11;;;;;;;7.00;4.20;;;;;;;7.84;78.02;99632.64;232968;1205;24140;-73
2021/09/06 05:32:28;;;;;;;;;;;;;;;8.12;77.92;99633.69;233129;1209;24102;-77
2021/09/06 05:37:32;;;;;;;9.70;3.40;;;;;;;8.33;77.62;99629.95;232645;1198;22479;-74
2021/09/06 05:42:36;;;;;;;5.20;3.80;;;;;;;8.50;77.39;99625.27;233170;1205;24155;-75
2021/09/06 05:47:41;;;;;;;7.50;4.10;;;;;;;8.67;77.19;99628.27;232833;1203;26166;-72
2021/09/06 05:52:45;;;;;;;6.40;3.90;;;;;;;8.81;77.02;99633.08;233389;1204;24120;-73
2021/09/06 05:57:47;;;;;;;5.50;3.60;;;;;;;8.91;76.69;99636.20;233204;1209;22451;-73
2021/09/06 06:02:50;;;;;;;5.40;3.50;;;;;;;9.03;76.62;99636.55;233629;1205;22491;-74
2021/09/06 06:08:01;;;;;;;4.70;3.10;;;;;;;9.18;76.67;99634.23;234963;1206;22476;-72
2021/09/06 06:13:03;;;;;;;6.90;3.40;;;;;;;9.38;76.50;99640.73;233712;1205;22463;-73
2021/09/06 06:18:08;;;;;;;6.60;3.50;;;;;;;9.62;76.51;99640.15;234933;1204;24058;-72
2021/09/06 06:23:11;;;;;;;5.60;3.10;;;;;;;9.86;76.14;99645.45;232984;1205;24084;-72
2021/09/06 06:28:33;;;;;;;6.40;3.00;;;;;;;10.10;75.85;99641.61;232947;1209;24083;-72
2021/09/06 06:33:36;;;;;;;7.00;3.50;;;;;;;10.31;75.68;99637.77;233455;1204;22507;-72
2021/09/06 06:38:57;;;;;;;3.30;2.60;;;;;;;10.55;75.22;99640.60;233380;1205;22451;-74
2021/09/06 06:44:36;;;;;;;6.60;3.20;;;;;;;10.78;74.90;99647.84;233472;1204;24812;-73
2021/09/06 06:49:59;;;;;;;4.20;2.30;;;;;;;11.00;74.42;99651.80;233497;1205;22460;-72
2021/09/06 06:55:02;;;;;;;5.00;2.40;;;;;;;11.20;74.46;99655.42;233561;1203;22642;-72
2021/09/06 07:00:07;;;;;;;6.60;2.30;;;;;;;11.42;74.07;99659.14;233578;1204;22458;-74
2021/09/06 07:05:11;;;;;;;4.20;2.50;;;;;;;11.70;73.63;99667.75;234129;1204;22472;-73
2021/09/06 07:10:25;;;;;;;4.20;2.20;;;;;;;11.98;73.31;99670.77;234252;1204;22515;-73
2021/09/06 07:15:34;;;;;;;2.70;1.80;;;;;;;12.28;72.80;99680.00;233454;1204;25388;-74
2021/09/06 07:20:49;;;;;;;3.80;2.40;;;;;;;12.61;72.30;99686.57;233364;1205;22456;-75
2021/09/06 07:26:13;;;;;;;6.30;2.10;;;;;;;12.95;71.47;99691.20;233451;1207;24056;-74
2021/09/06 07:31:16;;;;;;;2.40;1.60;;;;;;;13.21;70.18;99687.88;233675;1204;22434;-73
2021/09/06 07:36:18;;;;;;;3.70;1.40;;;;;;;13.48;69.24;99686.83;233320;1204;24070;-74
2021/09/06 07:41:21;;;;;;;4.20;1.70;;;;;;;13.73;68.61;99684.39;233141;1205;22440;-74
2021/09/06 07:46:26;;;;;;;3.90;1.50;;;;;;;13.97;67.68;99685.14;233083;1198;22481;-72
2021/09/06 07:51:30;;;;;;;3.60;1.40;;;;;;;14.19;66.38;99685.30;233117;1201;22454;-74
2021/09/06 07:56:33;;;;;;;1.70;1.30;;;;;;;14.40;65.07;99687.33;233190;1205;25226;-75
2021/09/06 08:01:39;;;;;;;2.30;1.20;;;;;;;14.58;63.93;99687.39;233161;1205;24123;-75
2021/09/06 08:06:45;;;;;;;2.10;1.20;;;;;;;14.73;62.96;99691.02;233868;1204;22464;-75
2021/09/06 08:11:48;;;;;;;1.40;1.10;;;;;;;14.92;62.43;99694.62;233327;1206;25043;-74
2021/09/06 08:16:55;;;;;;;3.60;1.40;;;;;;;15.11;61.11;99701.75;233064;1205;24090;-74
2021/09/06 08:21:57;;;;;;;1.10;0.90;;;;;;;15.24;59.95;99700.61;232976;1197;24035;-77
2021/09/06 08:27:00;;;;;;;2.20;1.10;;;;;;;15.34;59.10;99700.18;233350;1204;24109;-72
2021/09/06 08:32:16;;;;;;;1.90;1.20;;;;;;;15.49;58.74;99706.60;233157;1204;22917;-74
2021/09/06 08:37:22;;;;;;;1.80;1.20;;;;;;;15.67;58.11;99708.86;233659;1205;22925;-74
2021/09/06 08:42:25;;;;;;;1.80;1.20;;;;;;;15.82;57.36;99710.05;234451;1204;22503;-75
2021/09/06 08:47:28;;;;;;;1.30;1.10;;;;;;;15.97;57.12;99717.71;233608;1204;22458;-76
2021/09/06 08:52:31;;;;;;;1.10;1.00;;;;;;;16.11;56.26;99720.23;233184;1203;22468;-76
2021/09/06 08:57:33;;;;;;;1.80;0.90;;;;;;;16.22;55.78;99719.81;233271;1207;24154;-76
2021/09/06 09:02:40;;;;;;;2.60;1.80;;;;;;;16.42;55.87;99714.61;234515;1205;25218;-76
2021/09/06 09:08:02;;;;;;;2.10;1.40;;;;;;;16.59;54.70;99712.73;233704;1203;22485;-74
2021/09/06 09:13:44;;;;;;;1.90;1.30;;;;;;;16.68;54.44;99710.73;233347;1205;23153;-72
2021/09/06 09:19:11;;;;;;;1.40;1.00;;;;;;;16.73;53.12;99715.96;232948;1204;24119;-74
2021/09/06 09:24:28;;;;;;;2.90;1.30;;;;;;;16.79;53.16;99711.77;232901;1205;22470;-74
2021/09/06 09:29:53;;;;;;;4.70;1.60;;;;;;;16.91;52.92;99713.89;233106;1203;23045;-74
2021/09/06 09:35:08;;;;;;;3.40;1.30;;;;;;;17.01;52.19;99698.84;232948;1204;22461;-74
2021/09/06 09:40:15;;;;;;;1.80;1.60;;;;;;;17.10;51.72;99706.89;234649;1204;24208;-74
2021/09/06 09:45:22;;;;;;;1.50;1.30;;;;;;;17.21;51.12;99712.47;233963;1204;22545;-75
2021/09/06 09:50:44;;;;;;;2.10;1.30;;;;;;;17.28;50.94;99709.35;235398;1204;22462;-72
2021/09/06 09:55:49;;;;;;;6.00;1.30;;;;;;;17.38;50.93;99697.73;234284;1204;24309;-74
2021/09/06 10:00:52;;;;;;;2.80;1.50;;;;;;;17.51;51.06;99697.77;233370;1204;24134;-74
2021/09/06 10:05:57;;;;;;;1.80;1.40;;;;;;;17.64;50.62;99692.72;233307;1204;25218;-74
2021/09/06 10:11:11;;;;;;;1.90;1.30;;;;;;;17.71;50.44;99694.79;233512;1204;24130;-75
2021/09/06 10:16:29;;;;;;;2.60;1.40;;;;;;;17.82;49.58;99687.30;234695;1206;22537;-74
2021/09/06 10:21:40;;;;;;;2.00;1.40;;;;;;;17.83;48.55;99690.55;234782;1204;22379;-73
2021/09/06 10:26:47;;;;;;;2.60;1.80;;;;;;;17.92;48.61;99678.77;233227;1204;23995;-74
2021/09/06 10:32:01;;;;;;;2.40;1.20;;;;;;;18.03;47.70;99684.64;233045;1205;25246;-73
2021/09/06 10:37:05;;;;;;;1.50;1.40;;;;;;;18.14;47.86;99684.98;233051;1206;22540;-74
2021/09/06 10:42:10;;;;;;;1.90;1.30;;;;;;;18.15;47.03;99683.17;232913;1204;23093;-72
2021/09/06 10:47:14;;;;;;;2.90;2.10;;;;;;;18.16;47.01;99677.23;232878;1204;25342;-74
2021/09/06 10:52:24;;;;;;;2.20;1.40;;;;;;;18.29;47.62;99671.47;232921;1204;25345;-71
2021/09/06 10:57:28;;;;;;;3.60;1.10;;;;;;;18.52;47.40;99668.58;232992;1205;22448;-71
2021/09/06 11:02:45;;;;;;;1.60;1.20;;;;;;;18.68;46.81;99662.02;233010;1204;24098;-73
2021/09/06 11:08:06;;;;;;;2.00;1.30;;;;;;;18.78;46.21;99662.88;232678;1205;22497;-72
2021/09/06 11:13:35;;;;;;;1.60;1.30;;;;;;;18.86;45.75;99660.58;233227;1204;24075;-71
2021/09/06 11:18:43;;;;;;;1.60;1.30;;;;;;;18.93;45.52;99663.48;232912;1205;22582;-73
2021/09/06 11:23:46;;;;;;;1.70;1.40;;;;;;;18.98;45.04;99659.42;233594;1204;22438;-72
2021/09/06 11:28:49;;;;;;;2.30;1.30;;;;;;;18.93;44.74;99652.92;233277;1204;22381;-74
2021/09/06 11:34:04;;;;;;;1.40;1.20;;;;;;;19.02;44.78;99652.29;232890;1206;22585;-73
2021/09/06 11:39:09;;;;;;;2.30;1.80;;;;;;;19.14;44.39;99649.05;233008;1204;22486;-71
2021/09/06 11:44:12;;;;;;;2.00;1.40;;;;;;;19.23;43.91;99641.27;232955;1204;24091;-72
2021/09/06 11:49:19;;;;;;;2.10;1.30;;;;;;;19.33;44.03;99638.52;233078;1206;24070;-71
2021/09/06 11:54:23;;;;;;;1.90;1.40;;;;;;;19.44;44.01;99634.28;233207;1212;22475;-72
2021/09/06 11:59:31;;;;;;;2.50;1.60;;;;;;;19.55;44.06;99634.56;232715;1205;24121;-74
2021/09/06 12:04:38;;;;;;;2.00;1.40;;;;;;;19.70;43.28;99626.36;232982;1197;22466;-73
2021/09/06 12:09:41;;;;;;;4.30;1.40;;;;;;;19.72;41.91;99627.20;233607;1206;22634;-73
2021/09/06 12:14:46;;;;;;;1.70;1.20;;;;;;;19.76;42.10;99627.63;233762;1198;25096;-74
2021/09/06 12:19:50;;;;;;;2.00;1.40;;;;;;;19.77;42.19;99631.21;233144;1204;22462;-74
2021/09/06 12:25:06;;;;;;;1.70;1.30;;;;;;;19.73;41.73;99623.63;232834;1207;25262;-73
2021/09/06 12:30:18;;;;;;;3.00;1.60;;;;;;;19.74;41.52;99620.86;233352;1204;22464;-74
2021/09/06 12:35:41;;;;;;;2.70;1.30;;;;;;;19.82;41.92;99618.84;233187;1204;24208;-72
2021/09/06 12:40:43;;;;;;;1.40;1.20;;;;;;;19.94;41.72;99617.98;233008;1204;25215;-73
2021/09/06 12:45:45;;;;;;;1.90;1.40;;;;;;;19.96;41.49;99611.80;232816;1205;24169;-73
2021/09/06 12:50:49;;;;;;;1.40;1.30;;;;;;;19.94;40.91;99596.48;233133;1204;23491;-73
2021/09/06 12:55:53;;;;;;;1.60;1.20;;;;;;;19.94;41.27;99596.04;233052;1205;22474;-72
2021/09/06 13:00:56;;;;;;;1.20;1.10;;;;;;;20.02;41.76;99594.99;232931;1205;22439;-73
2021/09/06 13:06:00;;;;;;;1.80;1.20;;;;;;;20.07;41.04;99596.90;233548;1204;24115;-73
2021/09/06 13:11:03;;;;;;;2.30;1.80;;;;;;;20.04;40.95;99596.88;233127;1204;22970;-76
2021/09/06 13:16:06;;;;;;;1.70;1.40;;;;;;;20.09;40.82;99599.13;233447;1204;24135;-73
2021/09/06 13:21:09;;;;;;;1.60;1.20;;;;;;;20.10;40.79;99590.40;233106;1205;22436;-72
2021/09/06 13:26:13;;;;;;;2.40;1.00;;;;;;;20.07;40.54;99585.60;234801;1205;22479;-74
2021/09/06 13:31:16;;;;;;;1.70;1.30;;;;;;;20.06;40.63;99585.64;233218;1204;24118;-73
2021/09/06 13:36:18;;;;;;;5.10;3.20;;;;;;;20.08;40.73;99586.91;233336;1204;24091;-74
2021/09/06 13:41:21;;;;;;;2.30;1.40;;;;;;;20.22;40.68;99580.62;233399;1205;22504;-72
2021/09/06 13:46:24;;;;;;;2.50;1.70;;;;;;;20.31;39.95;99580.73;233385;1198;25484;-75
2021/09/06 13:51:26;;;;;;;2.00;1.40;;;;;;;20.35;39.67;99583.58;233255;1204;22516;-74
2021/09/06 13:56:31;;;;;;;1.50;1.20;;;;;;;20.37;39.57;99579.56;233150;1204;22467;-74
2021/09/06 14:01:33;;;;;;;1.60;1.30;;;;;;;20.33;39.42;99572.42;233957;1197;22490;-73
2021/09/06 14:06:37;;;;;;;2.80;1.70;;;;;;;20.29;39.23;99574.13;234242;1211;22767;-73
2021/09/06 14:11:40;;;;;;;2.40;1.30;;;;;;;20.21;39.33;99571.02;233783;1201;22467;-73
2021/09/06 14:16:43;;;;;;;1.90;1.50;;;;;;;20.25;39.23;99570.17;233537;1205;22501;-73
2021/09/06 14:21:46;;;;;;;2.00;1.40;;;;;;;20.25;38.69;99566.36;233551;1204;24087;-74
2021/09/06 14:27:02;;;;;;;1.80;1.30;;;;;;;20.17;38.88;99563.70;232743;1205;22533;-74
2021/09/06 14:32:09;;;;;;;2.40;1.40;;;;;;;20.16;39.09;99565.05;233825;1204;22445;-71
2021/09/06 14:37:16;;;;;;;2.20;1.30;;;;;;;20.20;39.72;99560.54;232645;1204;24090;-74
2021/09/06 14:42:18;;;;;;;2.60;1.30;;;;;;;20.24;39.36;99559.48;233218;1204;22460;-73
2021/09/06 14:47:21;;;;;;;2.20;1.70;;;;;;;20.22;39.40;99558.27;232766;1206;24064;-72
2021/09/06 14:52:28;;;;;;;1.50;1.30;;;;;;;20.17;38.48;99555.29;232798;1205;25179;-72
2021/09/06 14:57:31;;;;;;;2.30;1.70;;;;;;;20.16;38.95;99554.95;233107;1204;24055;-74
2021/09/06 15:02:33;;;;;;;2.40;1.40;;;;;;;20.23;39.16;99549.52;233096;1204;22451;-75
2021/09/06 15:07:50;;;;;;;3.10;2.20;;;;;;;20.25;39.03;99546.15;233671;1204;24163;-74
2021/09/06 15:13:12;;;;;;;2.10;1.60;;;;;;;20.20;38.67;99543.13;232924;1204;24057;-74
2021/09/06 15:18:15;;;;;;;1.70;1.30;;;;;;;20.19;39.19;99543.30;233309;1204;24084;-72
2021/09/06 15:23:18;;;;;;;1.90;1.40;;;;;;;20.18;39.41;99543.73;233384;1204;22480;-75
2021/09/06 15:28:20;;;;;;;3.40;1.80;;;;;;;20.14;39.43;99540.56;233112;1204;22485;-73
2021/09/06 15:33:23;;;;;;;4.70;2.30;;;;;;;20.06;39.30;99548.75;232897;1204;25193;-74
2021/09/06 15:38:29;;;;;;;2.20;1.60;;;;;;;20.02;39.16;99541.79;233056;1204;23015;-74
2021/09/06 15:43:47;;;;;;;2.60;1.60;;;;;;;20.04;38.93;99537.27;233334;1198;24082;-71
2021/09/06 15:49:14;;;;;;;1.60;1.30;;;;;;;19.98;38.73;99538.98;232882;1206;22768;-74
2021/09/06 15:54:17;;;;;;;2.40;1.10;;;;;;;19.89;38.70;99534.02;232990;1204;25307;-74
2021/09/06 15:59:19;;;;;;;2.30;1.30;;;;;;;19.81;38.87;99528.80;232582;1204;22455;-74
2021/09/06 16:04:22;;;;;;;1.90;1.50;;;;;;;19.70;39.04;99522.55;232728;1204;24092;-73
2021/09/06 16:09:25;;;;;;;4.60;1.50;;;;;;;19.56;39.23;99525.15;232670;1205;22578;-74
2021/09/06 16:14:27;;;;;;;3.20;1.50;;;;;;;19.38;39.47;99521.02;232950;1198;24032;-73
2021/09/06 16:19:31;;;;;;;3.10;1.90;;;;;;;19.17;39.85;99523.67;232803;1204;24173;-72
2021/09/06 16:24:34;;;;;;;2.60;1.60;;;;;;;18.95;40.14;99520.98;232705;1207;24037;-73
2021/09/06 16:29:36;;;;;;;1.80;1.30;;;;;;;18.74;40.59;99523.29;232666;1204;22506;-73
2021/09/06 16:34:39;;;;;;;3.00;1.70;;;;;;;18.52;41.20;99520.80;232641;1205;22449;-72
2021/09/06 16:39:41;;;;;;;2.60;1.70;;;;;;;18.28;41.85;99522.60;232684;1204;22519;-74
2021/09/06 16:44:44;;;;;;;2.70;1.50;;;;;;;18.02;42.69;99526.52;232813;1205;25177;-73
2021/09/06 16:50:00;;;;;;;3.10;1.80;;;;;;;17.76;43.92;99521.78;232745;1204;22593;-73
2021/09/06 16:55:14;;;;;;;2.50;1.60;;;;;;;17.52;44.58;99521.69;232688;1205;24037;-74
2021/09/06 17:00:17;;;;;;;3.60;1.80;;;;;;;17.28;45.15;99520.42;232825;1204;22448;-74
2021/09/06 17:05:26;;;;;;;3.40;1.90;;;;;;;17.03;45.73;99512.84;232664;1205;24070;-73
2021/09/06 17:10:29;;;;;;;4.40;2.20;;;;;;;16.75;46.27;99508.20;232669;1198;22464;-73
2021/09/06 17:15:33;;;;;;;2.90;1.90;;;;;;;16.46;46.73;99508.47;232787;1205;24186;-73
2021/09/06 17:20:49;;;;;;;2.40;1.90;;;;;;;16.16;47.06;99505.26;232716;1205;24074;-73
2021/09/06 17:26:08;;;;;;;2.70;1.90;;;;;;;15.83;47.97;99506.83;232789;1205;24097;-75
2021/09/06 17:31:11;;;;;;;3.60;2.00;;;;;;;15.53;48.32;99511.09;233008;1205;22537;-74
2021/09/06 17:36:14;;;;;;;3.30;2.00;;;;;;;15.25;48.91;99509.25;232733;1204;24086;-74
2021/09/06 17:41:17;;;;;;;3.40;2.00;;;;;;;14.98;49.54;99502.27;232753;1205;25218;-74
2021/09/06 17:46:19;;;;;;;4.30;2.50;;;;;;;14.74;50.22;99509.70;232829;1209;25194;-72
2021/09/06 17:51:35;;;;;;;7.80;2.90;;;;;;;14.51;50.72;99517.89;232808;1204;24069;-74
2021/09/06 17:56:58;;;;;;;5.00;3.20;;;;;;;14.26;51.60;99519.64;232679;1204;24284;-75
2021/09/06 18:02:01;;;;;;;5.00;3.20;;;;;;;14.04;52.08;99512.33;232716;1205;24074;-72
2021/09/06 18:07:04;;;;;;;7.70;4.00;;;;;;;13.86;52.69;99517.39;233030;1205;24122;-72
2021/09/06 18:12:07;;;;;;;8.90;4.30;;;;;;;13.68;53.27;99526.84;233551;1204;22525;-73
2021/09/06 18:17:11;;;;;;;7.20;4.40;;;;;;;13.53;53.84;99536.15;233001;1205;24213;-74
2021/09/06 18:22:16;;;;;;;8.10;4.90;;;;;;;13.40;54.35;99539.59;233009;1204;22448;-72
2021/09/06 18:27:18;;;;;;;11.10;5.60;;;;;;;13.29;54.80;99546.75;233013;1204;22654;-74
2021/09/06 18:32:21;;;;;;;11.20;6.00;;;;;;;13.22;55.46;99551.13;232868;1205;22448;-73
2021/09/06 18:37:23;;;;;;;14.30;6.50;;;;;;;13.18;56.05;99544.55;232894;1204;22468;-75
2021/09/06 18:42:26;;;;;;;11.30;6.40;;;;;;;13.16;56.67;99542.86;232622;1208;22501;-74
2021/09/06 18:47:28;;;;;;;11.40;6.20;;;;;;;13.12;57.02;99542.47;232837;1204;24082;-72
2021/09/06 18:52:31;;;;;;;11.00;6.60;;;;;;;13.06;57.39;99544.43;232704;1207;24074;-73
2021/09/06 18:57:34;;;;;;;10.10;6.50;;;;;;;12.95;57.90;99541.41;232893;1205;24059;-71
2021/09/06 19:02:52;;;;;;;10.50;7.20;;;;;;;12.81;58.27;99545.64;232662;1207;26206;-73
2021/09/06 19:07:57;;;;;;;14.10;8.70;;;;;;;12.70;58.68;99542.95;232686;1205;24075;-73
2021/09/06 19:13:00;;;;;;;17.80;9.70;;;;;;;12.62;59.39;99547.44;232843;1204;24084;-72
2021/09/06 19:18:04;;;;;;;14.60;8.10;;;;;;;12.56;59.85;99547.48;232924;1209;22467;-73
2021/09/06 19:23:08;;;;;;;18.80;11.50;;;;;;;12.47;60.08;99549.23;232917;1208;25619;-73
2021/09/06 19:28:10;;;;;;;20.20;12.90;;;;;;;12.36;60.10;99548.13;232581;1206;24083;-73
2021/09/06 19:33:13;;;;;;;21.50;12.10;;;;;;;12.24;60.29;99545.86;232612;1207;25209;-71
2021/09/06 19:38:15;;;;;;;22.50;14.80;;;;;;;12.16;60.56;99548.61;232820;1208;22498;-74
2021/09/06 19:43:23;;;;;;;22.40;13.30;;;;;;;12.11;61.17;99544.08;232757;1209;22504;-73
2021/09/06 19:48:25;;;;;;;21.40;12.90;;;;;;;12.07;61.60;99551.58;233003;1203;24072;-73
2021/09/06 19:53:28;;;;;;;19.40;12.70;;;;;;;12.01;61.99;99554.73;232563;1205;25261;-71
2021/09/06 19:58:32;;;;;;;18.20;12.00;;;;;;;11.93;62.33;99555.14;232875;1205;24062;-71
2021/09/06 20:03:35;;;;;;;19.60;12.20;;;;;;;11.86;62.81;99554.34;232534;1207;24075;-73
2021/09/06 20:08:39;;;;;;;23.40;13.00;;;;;;;11.83;63.08;99552.92;232763;1209;25438;-73
2021/09/06 20:13:41;;;;;;;21.60;12.60;;;;;;;11.78;63.30;99550.31;232880;1205;24141;-72
2021/09/06 20:18:46;;;;;;;20.10;13.10;;;;;;;11.73;63.67;99555.55;232740;1209;24063;-74
2021/09/06 20:24:08;;;;;;;21.70;12.10;;;;;;;11.64;63.72;99551.42;232828;1205;24123;-73
2021/09/06 20:29:15;;;;;;;28.00;13.90;;;;;;;11.57;63.89;99548.28;232916;1205;22509;-72
2021/09/06 20:34:18;;;;;;;28.70;14.60;;;;;;;11.53;64.04;99550.07;232866;1209;22464;-71
2021/09/06 20:39:21;;;;;;;21.30;11.60;;;;;;;11.49;64.28;99549.39;232534;1209;24076;-73
2021/09/06 20:44:24;;;;;;;20.20;11.40;;;;;;;11.42;64.60;99551.88;232774;1205;24606;-71
2021/09/06 20:49:27;;;;;;;18.30;11.10;;;;;;;11.34;64.99;99550.09;232811;1202;24090;-74
2021/09/06 20:54:29;;;;;;;19.50;10.60;;;;;;;11.27;65.35;99544.43;233059;1209;24212;-71
2021/09/06 20:59:32;;;;;;;20.40;11.60;;;;;;;11.23;65.82;99545.36;232654;1203;24041;-73
2021/09/06 21:04:35;;;;;;;19.30;12.00;;;;;;;11.17;66.01;99546.56;232453;1204;24329;-73
2021/09/06 21:09:37;;;;;;;19.80;11.40;;;;;;;11.11;66.33;99547.31;232519;1208;25229;-74
2021/09/06 21:14:40;;;;;;;19.40;11.60;;;;;;;11.06;66.81;99550.45;232433;1201;24028;-73
2021/09/06 21:19:43;;;;;;;19.30;11.90;;;;;;;11.04;66.97;99550.99;232467;1208;24461;-71
2021/09/06 21:24:46;;;;;;;20.40;11.60;;;;;;;11.02;67.10;99550.89;232884;1206;24883;-73
2021/09/06 21:29:48;;;;;;;22.10;11.00;;;;;;;10.97;67.18;99552.61;232894;1205;25212;-73
2021/09/06 21:34:51;;;;;;;17.10;10.60;;;;;;;10.93;67.29;99557.93;232854;1205;24068;-73
2021/09/06 21:39:54;;;;;;;22.50;12.10;;;;;;;10.90;67.80;99556.97;232664;1206;22465;-73
2021/09/06 21:44:57;;;;;;;21.80;11.90;;;;;;;10.84;67.78;99558.42;232528;1202;24110;-73
2021/09/06 21:49:59;;;;;;;19.10;10.50;;;;;;;10.77;67.96;99554.15;232847;1206;24039;-71
2021/09/06 21:55:03;;;;;;;16.70;9.70;;;;;;;10.68;67.99;99556.41;232981;1205;22526;-73
2021/09/06 22:00:08;;;;;;;19.60;10.20;;;;;;;10.63;68.44;99557.48;232776;1198;24059;-73
2021/09/06 22:05:12;;;;;;;15.40;9.70;;;;;;;10.61;68.72;99553.69;232487;1205;24031;-72
2021/09/06 22:10:19;;;;;;;13.30;8.30;;;;;;;10.55;68.60;99557.38;233011;1205;24148;-73
2021/09/06 22:15:39;;;;;;;12.80;7.70;;;;;;;10.48;68.64;99553.16;232492;1209;22470;-71
2021/09/06 22:20:42;;;;;;;11.00;7.90;;;;;;;10.43;68.84;99549.31;232921;1203;22523;-71
2021/09/06 22:25:44;;;;;;;13.50;8.10;;;;;;;10.37;68.93;99541.80;233030;1205;24363;-71
2021/09/06 22:30:47;;;;;;;13.10;7.70;;;;;;;10.31;69.20;99543.05;233084;1205;22518;-71
2021/09/06 22:35:50;;;;;;;13.50;7.30;;;;;;;10.27;69.18;99542.84;232860;1209;24860;-71
2021/09/06 22:40:53;;;;;;;13.10;8.00;;;;;;;10.22;69.44;99541.07;232526;1209;24224;-71
2021/09/06 22:45:58;;;;;;;13.20;8.40;;;;;;;10.19;69.68;99542.25;233047;1207;25088;-71
2021/09/06 22:51:16;;;;;;;11.80;7.70;;;;;;;10.16;69.77;99542.61;232918;1206;24071;-72
2021/09/06 22:56:18;;;;;;;15.10;8.30;;;;;;;10.15;69.96;99538.91;232931;1205;24133;-73
2021/09/06 23:01:23;;;;;;;14.50;9.00;;;;;;;10.16;70.23;99537.16;232562;1205;24110;-71
2021/09/06 23:06:26;;;;;;;15.10;8.40;;;;;;;10.15;70.45;99534.11;233082;1209;22372;-71
2021/09/06 23:11:29;;;;;;;15.10;7.90;;;;;;;10.10;70.25;99527.04;233017;1205;22459;-73
2021/09/06 23:16:33;;;;;;;18.10;8.40;;;;;;;10.06;70.39;99521.67;232839;1206;25290;-73
2021/09/06 23:21:36;;;;;;;14.30;8.00;;;;;;;10.01;70.63;99514.07;232964;1204;24102;-73
2021/09/06 23:26:39;;;;;;;15.70;8.90;;;;;;;10.02;70.95;99505.77;232880;1197;22463;-73
2021/09/06 23:31:41;;;;;;;14.60;7.80;;;;;;;10.00;71.17;99509.67;232474;1206;24060;-71
2021/09/06 23:36:44;;;;;;;13.90;8.30;;;;;;;9.95;71.05;99504.09;232790;1209;22461;-73
2021/09/06 23:41:50;;;;;;;14.70;8.30;;;;;;;9.87;70.98;99503.83;233202;1205;24089;-72
2021/09/06 23:47:01;;;;;;;12.50;7.90;;;;;;;9.77;71.13;99503.33;233077;1209;25091;-73